createdAt,value
2023-01-04T00:02:16.520Z,12.55
2023-01-04T00:04:46.679Z,14.32
2023-01-04T00:07:19.338Z,13.93
2023-01-04T00:09:49.448Z,13.13
2023-01-04T00:12:20.745Z,13.27
2023-01-04T00:14:51.072Z,11.77
2023-01-04T00:17:21.175Z,12.85
2023-01-04T00:19:51.433Z,13.45
2023-01-04T00:22:24.026Z,11.60
2023-01-04T00:24:54.508Z,13.23
2023-01-04T00:27:24.428Z,11.98
2023-01-04T00:29:54.348Z,12.00
2023-01-04T00:32:24.557Z,12.10
2023-01-04T00:34:54.465Z,13.20
2023-01-04T00:37:27.040Z,12.20
2023-01-04T00:39:56.992Z,10.75
2023-01-04T00:42:26.905Z,10.73
2023-01-04T00:44:56.806Z,10.75
2023-01-04T00:47:26.824Z,11.60
2023-01-04T00:49:56.723Z,10.90
2023-01-04T00:52:29.300Z,12.65
2023-01-04T00:54:59.256Z,10.87
2023-01-04T00:57:29.225Z,10.90
2023-01-04T00:59:59.139Z,12.17
2023-01-04T01:02:34.923Z,12.07
2023-01-04T01:05:05.132Z,12.67
2023-01-04T01:07:37.690Z,10.63
2023-01-04T01:10:08.970Z,12.50
2023-01-04T01:12:38.968Z,11.33
2023-01-04T01:15:10.540Z,11.13
2023-01-04T01:17:40.688Z,12.60
2023-01-04T01:20:12.771Z,11.20
2023-01-04T01:22:45.282Z,11.83
2023-01-04T01:25:15.335Z,11.73
2023-01-04T01:27:45.289Z,12.60
2023-01-04T01:30:15.985Z,12.53
2023-01-04T01:32:45.977Z,12.03
2023-01-04T01:35:15.966Z,14.73
2023-01-04T01:37:48.552Z,12.70
2023-01-04T01:40:18.771Z,11.87
2023-01-04T01:42:48.754Z,12.37
2023-01-04T01:45:34.517Z,11.63
2023-01-04T01:48:09.764Z,11.27
2023-01-04T01:50:42.859Z,12.50
2023-01-04T01:53:15.865Z,12.47
2023-01-04T01:55:47.622Z,11.53
2023-01-04T01:58:24.621Z,13.10
2023-01-04T02:00:54.679Z,12.70
2023-01-04T02:03:26.839Z,11.10
2023-01-04T02:05:59.997Z,12.13
2023-01-04T02:08:33.533Z,13.77
2023-01-04T02:11:04.019Z,12.98
2023-01-04T02:13:48.802Z,12.60
2023-01-04T02:19:01.017Z,12.95
2023-01-04T02:21:43.764Z,11.87
2023-01-04T02:24:41.283Z,12.87
2023-01-04T02:27:38.985Z,12.80
2023-01-04T02:30:51.025Z,12.37
2023-01-04T02:33:36.391Z,13.43
2023-01-04T02:36:14.421Z,13.97
2023-01-04T02:39:00.213Z,13.63
2023-01-04T02:41:36.725Z,14.83
2023-01-04T02:44:26.965Z,15.27
2023-01-04T02:47:02.472Z,14.50
2023-01-04T02:49:47.668Z,14.93
2023-01-04T02:52:18.140Z,14.93
2023-01-04T02:54:50.212Z,14.13
2023-01-04T02:57:38.410Z,12.87
2023-01-04T03:00:34.914Z,13.80
2023-01-04T03:03:32.755Z,12.87
2023-01-04T03:06:20.468Z,13.40
2023-01-04T03:09:01.743Z,14.82
2023-01-04T03:11:51.502Z,13.73
2023-01-04T03:14:32.908Z,13.80
2023-01-04T03:17:07.353Z,13.13
2023-01-04T03:19:55.234Z,14.63
2023-01-04T03:22:46.329Z,16.47
2023-01-04T03:25:31.120Z,13.90
2023-01-04T03:31:06.546Z,11.97
2023-01-04T03:33:49.252Z,12.33
2023-01-04T03:36:29.787Z,13.97
2023-01-04T03:39:23.079Z,13.03
2023-01-04T03:42:14.034Z,11.70
2023-01-04T03:45:09.452Z,13.13
2023-01-04T03:47:59.097Z,13.27
2023-01-04T03:50:33.073Z,13.60
2023-01-04T03:53:04.292Z,13.93
2023-01-04T03:55:38.008Z,13.53
2023-01-04T03:58:08.081Z,13.73
2023-01-04T04:00:38.283Z,14.93
2023-01-04T04:03:12.500Z,15.33
2023-01-04T04:05:57.362Z,13.20
2023-01-04T04:08:28.687Z,13.77
2023-01-04T04:11:24.752Z,13.90
2023-01-04T04:13:54.715Z,15.60
2023-01-04T04:16:24.930Z,12.30
2023-01-04T04:18:54.976Z,12.90
2023-01-04T04:21:25.241Z,13.13
2023-01-04T04:23:57.505Z,13.70
2023-01-04T04:26:30.113Z,12.80
2023-01-04T04:29:00.170Z,13.70
2023-01-04T04:31:30.208Z,13.30
2023-01-04T04:34:00.372Z,13.97
2023-01-04T04:36:30.402Z,13.67
2023-01-04T04:39:00.708Z,13.03
2023-01-04T04:41:39.780Z,16.17
2023-01-04T04:44:11.513Z,16.70
2023-01-04T04:46:41.808Z,15.43
2023-01-04T04:49:13.757Z,15.83
2023-01-04T04:51:45.025Z,15.90
2023-01-04T04:54:18.834Z,15.20
2023-01-04T04:56:52.235Z,16.08
2023-01-04T04:59:22.231Z,16.13
2023-01-04T05:01:54.191Z,17.63
2023-01-04T05:04:24.544Z,15.37
2023-01-04T05:06:55.649Z,18.07
2023-01-04T05:09:25.658Z,18.30
2023-01-04T05:12:10.777Z,16.10
2023-01-04T05:14:40.902Z,17.03
2023-01-04T05:17:10.990Z,18.97
2023-01-04T05:19:41.094Z,15.30
2023-01-04T05:22:11.224Z,16.57
2023-01-04T05:24:41.255Z,16.50
2023-01-04T05:27:13.995Z,17.23
2023-01-04T05:29:56.571Z,14.80
2023-01-04T05:32:26.603Z,15.85
2023-01-04T05:34:56.618Z,16.85
2023-01-04T05:37:26.711Z,16.83
2023-01-04T05:39:56.768Z,16.40
2023-01-04T05:42:29.390Z,15.45
2023-01-04T05:45:00.885Z,14.17
2023-01-04T05:47:31.154Z,15.33
2023-01-04T05:50:01.327Z,17.33
2023-01-04T05:52:31.684Z,15.80
2023-01-04T05:55:01.813Z,15.52
2023-01-04T05:57:34.556Z,16.23
2023-01-04T06:00:04.920Z,15.13
2023-01-04T06:02:44.806Z,14.90
2023-01-04T06:05:15.405Z,14.73
2023-01-04T06:07:45.506Z,14.35
2023-01-04T06:10:16.568Z,14.32
2023-01-04T06:12:52.493Z,14.07
2023-01-04T06:15:27.186Z,12.88
2023-01-04T06:17:57.253Z,13.75
2023-01-04T06:20:27.300Z,14.50
2023-01-04T06:22:57.271Z,13.25
2023-01-04T06:25:27.267Z,13.73
2023-01-04T06:28:00.181Z,13.13
2023-01-04T06:30:30.329Z,13.43
2023-01-04T06:33:00.407Z,13.50
2023-01-04T06:35:30.487Z,13.90
2023-01-04T06:38:00.607Z,13.32
2023-01-04T06:40:30.756Z,14.18
2023-01-04T06:43:03.367Z,11.15
2023-01-04T06:45:33.389Z,13.15
2023-01-04T06:48:08.748Z,14.02
2023-01-04T06:50:39.580Z,13.35
2023-01-04T06:53:09.900Z,12.95
2023-01-04T06:55:39.925Z,12.55
2023-01-04T06:58:12.478Z,12.73
2023-01-04T07:00:42.494Z,13.57
2023-01-04T07:03:15.737Z,13.33
2023-01-04T07:05:46.461Z,13.15
2023-01-04T07:08:17.308Z,11.40
2023-01-04T07:10:47.376Z,12.68
2023-01-04T07:13:20.289Z,12.98
2023-01-04T07:15:50.413Z,12.60
2023-01-04T07:18:20.534Z,11.63
2023-01-04T07:20:50.511Z,13.02
2023-01-04T07:23:20.537Z,11.82
2023-01-04T07:25:50.498Z,12.88
2023-01-04T07:28:35.310Z,13.40
2023-01-04T07:33:38.764Z,10.85
2023-01-04T07:36:10.106Z,12.23
2023-01-04T07:38:40.269Z,11.25
2023-01-04T07:41:10.798Z,12.27
2023-01-04T07:43:43.680Z,10.45
2023-01-04T07:46:13.670Z,11.73
2023-01-04T07:48:43.664Z,11.93
2023-01-04T07:51:13.624Z,14.30
2023-01-04T07:53:43.572Z,15.45
2023-01-04T07:56:18.482Z,13.52
2023-01-04T07:58:57.122Z,12.75
2023-01-04T08:01:28.665Z,12.32
2023-01-04T08:03:58.708Z,12.07
2023-01-04T08:06:28.973Z,12.68
2023-01-04T08:08:58.951Z,14.35
2023-01-04T08:11:29.335Z,12.02
2023-01-04T08:14:08.856Z,11.63
2023-01-04T08:16:42.919Z,11.30
2023-01-04T08:19:20.527Z,11.75
2023-01-04T08:21:55.781Z,9.95
2023-01-04T08:27:20.747Z,10.52
2023-01-04T08:30:08.227Z,10.68
2023-01-04T08:32:53.712Z,11.68
2023-01-04T08:35:26.781Z,10.00
2023-01-04T08:38:13.322Z,9.48
2023-01-04T08:40:59.619Z,10.10
2023-01-04T08:43:32.104Z,9.90
2023-01-04T08:46:05.187Z,10.38
2023-01-04T08:48:37.084Z,10.63
2023-01-04T08:51:09.726Z,9.85
2023-01-04T08:53:40.363Z,9.57
2023-01-04T08:56:11.451Z,10.00
2023-01-04T08:58:42.082Z,8.93
2023-01-04T09:01:15.172Z,9.25
2023-01-04T09:03:47.269Z,10.05
2023-01-04T09:06:18.851Z,10.18
2023-01-04T09:08:49.092Z,10.05
2023-01-04T09:11:20.816Z,9.95
2023-01-04T09:13:51.910Z,7.78
2023-01-04T09:16:24.581Z,9.98
2023-01-04T09:18:54.849Z,9.23
2023-01-04T09:21:25.452Z,8.15
2023-01-04T09:23:55.799Z,9.63
2023-01-04T09:26:27.353Z,8.75
2023-01-04T09:28:58.828Z,8.07
2023-01-04T09:31:32.108Z,7.22
2023-01-04T09:34:18.513Z,7.80
2023-01-04T09:36:49.563Z,7.32
2023-01-04T09:39:23.800Z,6.85
2023-01-04T09:41:59.615Z,6.53
2023-01-04T09:47:40.048Z,5.65
2023-01-04T09:50:16.925Z,5.45
2023-01-04T09:52:59.601Z,6.03
2023-01-04T09:55:37.268Z,6.57
2023-01-04T09:58:15.832Z,5.68
2023-01-04T10:00:48.381Z,5.03
2023-01-04T10:03:26.106Z,5.75
2023-01-04T10:05:58.695Z,5.05
2023-01-04T10:08:31.208Z,4.45
2023-01-04T10:11:09.394Z,5.20
2023-01-04T10:13:58.286Z,4.30
2023-01-04T10:17:11.837Z,4.47
2023-01-04T10:22:41.968Z,3.30
2023-01-04T10:25:24.297Z,2.60
2023-01-04T10:28:00.405Z,1.95
2023-01-04T10:30:33.832Z,2.00
2023-01-04T10:33:07.761Z,1.10
2023-01-04T10:35:41.077Z,1.05
2023-01-04T10:38:15.697Z,1.13
2023-01-04T10:40:47.427Z,0.80
2023-01-04T10:43:21.105Z,1.10
2023-01-04T10:45:54.055Z,0.93
2023-01-04T10:48:30.310Z,0.80
2023-01-04T10:51:09.781Z,0.77
2023-01-04T10:53:44.753Z,0.50
2023-01-04T10:56:25.281Z,0.60
2023-01-04T10:59:00.841Z,0.63
2023-01-04T11:01:33.249Z,0.60
2023-01-04T11:04:07.012Z,0.70
2023-01-04T11:06:44.413Z,0.90
2023-01-04T11:09:22.836Z,0.57
2023-01-04T11:11:56.561Z,0.80
2023-01-04T11:14:33.350Z,0.70
2023-01-04T11:17:07.993Z,1.00
2023-01-04T11:19:38.354Z,1.13
2023-01-04T11:22:14.895Z,0.60
2023-01-04T11:25:32.657Z,0.88
2023-01-04T11:27:41.434Z,1.23
2023-01-04T11:30:17.395Z,0.70
2023-01-04T11:32:53.278Z,0.30
2023-01-04T11:35:42.701Z,0.38
2023-01-04T11:38:18.800Z,0.20
2023-01-04T11:41:07.948Z,0.28
2023-01-04T11:43:39.431Z,0.40
2023-01-04T11:46:22.996Z,0.43
2023-01-04T11:48:53.715Z,0.10
2023-01-04T11:51:39.690Z,0.50
2023-01-04T11:54:22.499Z,0.47
2023-01-04T11:57:11.077Z,0.88
2023-01-04T11:59:42.453Z,0.32
2023-01-04T12:05:28.929Z,0.65
2023-01-04T12:08:00.847Z,0.38
2023-01-04T12:10:34.935Z,0.68
2023-01-04T12:15:38.651Z,0.50
2023-01-04T12:18:15.552Z,1.05
2023-01-04T12:20:45.832Z,1.58
2023-01-04T12:23:16.785Z,0.50
2023-01-04T12:25:52.767Z,0.40
2023-01-04T12:28:36.533Z,2.88
2023-01-04T12:31:34.718Z,1.42
2023-01-04T12:34:19.793Z,2.45
2023-01-04T12:37:05.232Z,0.40
2023-01-04T12:39:44.314Z,0.60
2023-01-04T12:42:30.241Z,0.80
2023-01-04T12:45:06.305Z,0.32
2023-01-04T12:47:57.020Z,0.70
2023-01-04T12:50:31.213Z,0.63
2023-01-04T12:53:28.950Z,0.73
2023-01-04T12:55:55.780Z,0.70
2023-01-04T12:59:15.394Z,0.47
2023-01-04T13:04:06.390Z,0.40
2023-01-04T13:06:39.139Z,0.20
2023-01-04T13:09:23.676Z,0.20
2023-01-04T13:12:18.535Z,0.40
2023-01-04T13:14:50.992Z,0.20
2023-01-04T13:17:23.467Z,0.30
2023-01-04T13:19:56.966Z,0.30
2023-01-04T13:22:30.250Z,0.30
2023-01-04T13:25:02.993Z,0.20
2023-01-04T13:27:34.194Z,0.20
2023-01-04T13:30:04.469Z,1.40
2023-01-04T13:32:59.387Z,0.20
2023-01-04T13:35:29.402Z,1.85
2023-01-04T13:37:59.612Z,1.48
2023-01-04T13:40:32.890Z,1.77
2023-01-04T13:43:20.621Z,0.80
2023-01-04T13:45:57.007Z,1.00
2023-01-04T13:48:35.439Z,0.50
2023-01-04T13:51:09.191Z,0.50
2023-01-04T13:53:39.431Z,0.40
2023-01-04T13:56:09.926Z,0.70
2023-01-04T13:58:40.161Z,1.35
2023-01-04T14:01:16.498Z,5.68
2023-01-04T14:03:48.509Z,2.20
2023-01-04T14:06:24.639Z,0.88
2023-01-04T14:09:09.224Z,0.65
2023-01-04T14:12:03.787Z,0.20
2023-01-04T14:14:40.567Z,0.22
2023-01-04T14:17:46.221Z,0.32
2023-01-04T14:20:35.375Z,0.65
2023-01-04T14:23:07.916Z,0.43
2023-01-04T14:25:45.145Z,0.17
2023-01-04T14:28:38.924Z,0.28
2023-01-04T14:31:29.793Z,0.20
2023-01-04T14:34:00.197Z,0.50
2023-01-04T14:36:32.670Z,0.28
2023-01-04T14:39:22.706Z,0.10
2023-01-04T14:41:59.830Z,0.30
2023-01-04T14:44:31.998Z,0.30
2023-01-04T14:47:06.228Z,0.40
2023-01-04T14:52:12.131Z,0.40
2023-01-04T14:54:45.226Z,0.40
2023-01-04T14:57:15.237Z,0.40
2023-01-04T14:59:46.203Z,0.20
2023-01-04T15:02:16.739Z,0.43
2023-01-04T15:04:46.735Z,0.38
2023-01-04T15:07:35.885Z,0.40
2023-01-04T15:10:16.138Z,0.43
2023-01-04T15:12:46.080Z,0.20
2023-01-04T15:15:16.710Z,0.63
2023-01-04T15:17:47.167Z,0.52
2023-01-04T15:20:17.832Z,0.30
2023-01-04T15:22:48.416Z,0.60
2023-01-04T15:25:21.687Z,0.47
2023-01-04T15:27:52.645Z,0.33
2023-01-04T15:30:23.786Z,0.35
2023-01-04T15:32:54.252Z,0.70
2023-01-04T15:35:24.510Z,1.17
2023-01-04T15:37:54.826Z,0.50
2023-01-04T15:40:27.484Z,2.72
2023-01-04T15:43:00.989Z,0.43
2023-01-04T15:45:32.423Z,0.52
2023-01-04T15:48:03.757Z,0.93
2023-01-04T15:50:34.552Z,0.80
2023-01-04T15:53:04.742Z,0.85
2023-01-04T15:55:38.656Z,0.50
2023-01-04T15:58:08.918Z,0.57
2023-01-04T16:00:39.716Z,0.52
2023-01-04T16:03:09.928Z,0.98
2023-01-04T16:05:40.174Z,1.15
2023-01-04T16:08:10.164Z,2.17
2023-01-04T16:10:42.702Z,1.13
2023-01-04T16:13:12.669Z,1.20
2023-01-04T16:15:42.591Z,1.10
2023-01-04T16:18:13.113Z,0.60
2023-01-04T16:20:44.058Z,0.60
2023-01-04T16:23:14.056Z,1.20
2023-01-04T16:25:46.645Z,0.70
2023-01-04T16:28:16.647Z,0.82
2023-01-04T16:30:47.156Z,0.98
2023-01-04T16:33:17.531Z,1.17
2023-01-04T16:35:51.291Z,0.57
2023-01-04T16:38:24.300Z,0.57
2023-01-04T16:41:03.287Z,0.73
2023-01-04T16:43:34.038Z,0.80
2023-01-04T16:46:26.532Z,0.73
2023-01-04T16:48:59.033Z,0.40
2023-01-04T16:51:30.283Z,0.93
2023-01-04T16:54:00.321Z,1.10
2023-01-04T16:56:33.922Z,0.93
2023-01-04T16:59:04.696Z,0.70
2023-01-04T17:01:39.218Z,0.82
2023-01-04T17:04:14.980Z,0.70
2023-01-04T17:06:46.474Z,1.13
2023-01-04T17:09:18.014Z,0.90
2023-01-04T17:15:14.785Z,2.15
2023-01-04T17:17:42.333Z,1.70
2023-01-04T17:20:13.082Z,2.35
2023-01-04T17:22:43.145Z,4.65
2023-01-04T17:25:15.125Z,2.63
2023-01-04T17:27:47.790Z,2.10
2023-01-04T17:30:17.855Z,3.08
2023-01-04T17:32:47.801Z,3.70
2023-01-04T17:35:17.909Z,1.55
2023-01-04T17:37:47.972Z,1.23
2023-01-04T17:40:22.862Z,3.30
2023-01-04T17:42:55.866Z,3.10
2023-01-04T17:45:25.927Z,3.38
2023-01-04T17:47:56.198Z,1.50
2023-01-04T17:50:26.453Z,1.58
2023-01-04T17:52:59.233Z,2.10
2023-01-04T17:55:29.722Z,3.22
2023-01-04T17:58:04.447Z,1.00
2023-01-04T18:03:09.414Z,1.60
2023-01-04T18:05:51.543Z,1.27
2023-01-04T18:08:22.132Z,1.88
2023-01-04T18:11:08.526Z,1.67
2023-01-04T18:13:45.320Z,1.77
2023-01-04T18:16:24.345Z,1.27
2023-01-04T18:18:55.139Z,1.42
2023-01-04T18:21:28.433Z,1.55
2023-01-04T18:29:42.515Z,3.60
2023-01-04T18:32:12.797Z,0.80
2023-01-04T18:34:43.288Z,1.88
2023-01-04T18:37:13.758Z,1.63
2023-01-04T18:39:43.755Z,2.55
2023-01-04T18:42:13.743Z,1.27
2023-01-04T18:44:49.500Z,1.48
2023-01-04T18:47:21.336Z,2.20
2023-01-04T18:49:51.832Z,2.53
2023-01-04T18:52:22.530Z,0.90
2023-01-04T18:54:52.783Z,2.40
2023-01-04T18:57:23.012Z,1.20
2023-01-04T18:59:55.693Z,0.70
2023-01-04T19:02:26.650Z,1.10
2023-01-04T19:04:57.060Z,1.00
2023-01-04T19:07:28.313Z,1.98
2023-01-04T19:09:58.869Z,2.85
2023-01-04T19:12:28.812Z,1.10
2023-01-04T19:15:01.356Z,0.80
2023-01-04T19:17:31.673Z,0.55
2023-01-04T19:20:01.916Z,0.63
2023-01-04T19:22:32.141Z,0.77
2023-01-04T19:25:02.410Z,0.52
2023-01-04T19:27:32.777Z,0.88
2023-01-04T19:30:05.550Z,1.23
2023-01-04T19:32:35.680Z,0.60
2023-01-04T19:35:05.989Z,0.70
2023-01-04T19:37:36.324Z,0.75
2023-01-04T19:40:07.132Z,0.75
2023-01-04T19:42:37.106Z,0.70
2023-01-04T19:45:11.281Z,0.80
2023-01-04T19:47:41.288Z,0.30
2023-01-04T19:50:12.135Z,0.52
2023-01-04T19:52:42.704Z,1.20
2023-01-04T19:55:13.367Z,1.50
2023-01-04T19:57:43.633Z,1.27
2023-01-04T20:00:17.739Z,0.95
2023-01-04T20:02:47.802Z,1.27
2023-01-04T20:05:18.168Z,1.10
2023-01-04T20:07:49.194Z,1.00
2023-01-04T20:10:19.729Z,0.63
2023-01-04T20:12:49.971Z,1.05
2023-01-04T20:15:22.539Z,0.70
2023-01-04T20:17:52.491Z,0.50
2023-01-04T20:20:22.485Z,0.57
2023-01-04T20:22:52.492Z,1.40
2023-01-04T20:25:22.868Z,0.45
2023-01-04T20:27:53.104Z,0.70
2023-01-04T20:30:25.683Z,0.10
2023-01-04T20:32:55.883Z,1.17
2023-01-04T20:35:26.186Z,0.30
2023-01-04T20:37:56.936Z,0.20
2023-01-04T20:40:27.178Z,0.30
2023-01-04T20:43:10.144Z,0.22
2023-01-04T20:45:47.393Z,0.20
2023-01-04T20:48:18.361Z,0.30
2023-01-04T20:50:48.696Z,0.50
2023-01-04T20:53:19.047Z,0.30
2023-01-04T20:55:49.383Z,0.43
2023-01-04T20:58:20.142Z,0.30
2023-01-04T21:00:52.727Z,0.38
2023-01-04T21:03:22.725Z,0.30
2023-01-04T21:05:52.750Z,0.25
2023-01-04T21:08:22.692Z,0.22
2023-01-04T21:10:55.216Z,0.10
2023-01-04T21:13:25.541Z,0.68
2023-01-04T21:15:58.520Z,0.50
2023-01-04T21:18:29.034Z,0.70
2023-01-04T21:20:59.293Z,0.50
2023-01-04T21:23:30.030Z,0.50
2023-01-04T21:26:00.673Z,0.30
2023-01-04T21:28:30.657Z,0.55
2023-01-04T21:31:03.289Z,0.30
2023-01-04T21:33:33.661Z,0.30
2023-01-04T21:36:12.520Z,0.30
2023-01-04T21:38:42.853Z,0.30
2023-01-04T21:41:14.640Z,0.50
2023-01-04T21:43:45.835Z,0.30
2023-01-04T21:46:18.712Z,0.43
2023-01-04T21:48:49.106Z,0.30
2023-01-04T21:51:19.364Z,0.50
2023-01-04T21:53:49.390Z,0.40
2023-01-04T21:56:22.256Z,0.40
2023-01-04T21:58:52.637Z,0.32
2023-01-04T22:01:32.388Z,0.30
2023-01-04T22:04:04.668Z,0.40
2023-01-04T22:06:37.552Z,0.60
2023-01-04T22:09:08.096Z,0.38
2023-01-04T22:11:38.072Z,0.32
2023-01-04T22:14:08.295Z,0.50
2023-01-04T22:16:40.952Z,0.45
2023-01-04T22:19:14.043Z,0.57
2023-01-04T22:21:44.588Z,0.50
2023-01-04T22:24:16.281Z,0.80
2023-01-04T22:26:47.283Z,0.52
2023-01-04T22:29:17.318Z,0.70
2023-01-04T22:31:50.201Z,0.77
2023-01-04T22:34:20.330Z,0.57
2023-01-04T22:36:51.143Z,0.60
2023-01-04T22:39:21.680Z,0.50
2023-01-04T22:41:51.637Z,0.55
2023-01-04T22:44:21.885Z,0.30
2023-01-04T22:46:54.522Z,0.63
2023-01-04T22:49:24.510Z,0.55
2023-01-04T22:51:55.894Z,0.60
2023-01-04T22:54:26.233Z,0.50
2023-01-04T22:56:56.281Z,0.30
2023-01-04T22:59:27.099Z,0.45
2023-01-04T23:01:59.775Z,0.52
2023-01-04T23:04:30.135Z,0.20
2023-01-04T23:07:00.437Z,0.20
2023-01-04T23:09:30.701Z,0.25
2023-01-04T23:12:00.964Z,0.30
2023-01-04T23:14:31.276Z,0.10
2023-01-04T23:17:03.916Z,0.13
2023-01-04T23:19:34.891Z,0.73
2023-01-04T23:22:05.132Z,0.20
2023-01-04T23:24:37.978Z,0.15
2023-01-04T23:27:08.271Z,0.10
2023-01-04T23:29:38.623Z,0.10
2023-01-04T23:32:11.448Z,0.22
2023-01-04T23:34:41.786Z,0.20
2023-01-04T23:37:12.188Z,0.20
2023-01-04T23:39:42.598Z,0.20
2023-01-04T23:42:12.912Z,0.40
2023-01-04T23:44:43.171Z,0.25
2023-01-04T23:47:15.853Z,0.30
2023-01-04T23:49:46.163Z,0.57
2023-01-04T23:52:17.206Z,0.20
2023-01-04T23:54:47.524Z,0.30
2023-01-04T23:57:17.796Z,0.17
2023-01-04T23:59:48.223Z,0.20
